KADU

Audubon County Airport

Audubon, Iowa, USA
METAR KADU 220315Z AUTO 00000KT 10SM CLR 09/06 A3035 RMK AO2
Observed Flight Rules
Sep-22 @ 03:15 UTC (16 minutes ago) Visual Flight Rules
Visibility Clouds
10 miles
Temperatures Readings
Current 9°C / 48°F
Dewpoint 6°C / 43°F
Humidity 82%
Altimeter 30.35" Hg
Pressure 1028 hPa
Elevation 392
METAR KADU 220315Z AUTO 00000KT 10SM CLR 09/06 A3035 RMK AO2
Observed Flight Rules
Sep-22 @ 03:15 UTC
(16 minutes ago)
VFR
Clouds
Temperature Dewpoint
9°C / 48°F 6°C / 43°F
Humidity Altimeter Pressure
82% 30.35" Hg 1028 hPa